createdAt,value
2022-10-07T00:10:07.807Z,2.90
2022-10-07T00:21:07.659Z,2.40
2022-10-07T00:32:07.536Z,2.30
2022-10-07T00:43:07.357Z,1.80
2022-10-07T00:54:07.231Z,2.40
2022-10-07T01:05:07.108Z,2.30
2022-10-07T01:16:07.015Z,2.30
2022-10-07T01:27:06.865Z,2.60
2022-10-07T01:38:06.734Z,3.50
2022-10-07T01:49:06.612Z,3.00
2022-10-07T02:00:06.484Z,3.00
2022-10-07T02:11:06.373Z,2.90
2022-10-07T02:22:06.269Z,3.30
2022-10-07T02:33:06.150Z,3.30
2022-10-07T02:44:05.987Z,2.90
2022-10-07T02:55:05.860Z,1.90
2022-10-07T03:06:05.743Z,2.50
2022-10-07T03:17:05.612Z,2.30
2022-10-07T03:28:05.527Z,2.80
2022-10-07T03:39:05.379Z,3.10
2022-10-07T03:50:05.271Z,3.20
2022-10-07T04:01:05.110Z,2.70
2022-10-07T04:12:04.993Z,2.70
2022-10-07T04:23:04.872Z,2.80
2022-10-07T04:34:04.752Z,2.60
2022-10-07T04:45:04.609Z,2.70
2022-10-07T04:56:04.486Z,3.00
2022-10-07T05:07:05.353Z,2.80
2022-10-07T05:18:04.227Z,3.90
2022-10-07T05:29:04.144Z,2.80
2022-10-07T05:40:03.978Z,3.00
2022-10-07T05:51:03.857Z,2.30
2022-10-07T06:02:04.888Z,2.70
2022-10-07T06:13:03.612Z,3.20
2022-10-07T06:24:03.487Z,3.30
2022-10-07T06:35:03.372Z,2.70
2022-10-07T06:46:03.349Z,3.50
2022-10-07T06:57:15.426Z,3.70
2022-10-07T07:08:02.979Z,3.00
2022-10-07T07:19:02.854Z,2.50
2022-10-07T07:30:02.724Z,2.80
2022-10-07T07:41:02.611Z,4.00
2022-10-07T07:52:02.475Z,4.70
2022-10-07T08:03:02.352Z,3.00
2022-10-07T08:14:02.224Z,3.00
2022-10-07T08:25:02.169Z,3.40
2022-10-07T08:36:01.979Z,4.20
2022-10-07T08:47:01.880Z,4.00
2022-10-07T08:58:01.731Z,3.60
2022-10-07T09:09:01.609Z,4.40
2022-10-07T09:20:01.483Z,4.50
2022-10-07T09:31:01.412Z,4.70
2022-10-07T09:42:01.226Z,4.30
2022-10-07T09:53:01.170Z,3.50
2022-10-07T10:04:00.977Z,3.80
2022-10-07T10:15:00.860Z,5.20
2022-10-07T10:26:00.726Z,10.90
2022-10-07T10:37:00.619Z,4.70
2022-10-07T10:48:00.509Z,6.10
2022-10-07T10:59:01.360Z,5.20
2022-10-07T11:10:00.324Z,6.10
2022-10-07T11:21:00.106Z,6.70
2022-10-07T11:31:59.992Z,6.40
2022-10-07T11:42:59.854Z,6.90
2022-10-07T11:53:59.739Z,6.60
2022-10-07T12:04:59.633Z,6.50
2022-10-07T12:15:59.542Z,7.10
2022-10-07T12:26:59.355Z,7.50
2022-10-07T12:37:59.235Z,5.80
2022-10-07T12:48:59.110Z,6.10
2022-10-07T12:59:58.985Z,6.40
2022-10-07T13:10:58.869Z,5.40
2022-10-07T13:21:58.733Z,4.00
2022-10-07T13:32:58.617Z,4.70
2022-10-07T13:43:58.476Z,3.10
2022-10-07T13:54:58.348Z,3.80
2022-10-07T14:05:58.232Z,3.60
2022-10-07T14:16:58.174Z,3.50
2022-10-07T14:27:58.181Z,3.80
2022-10-07T14:38:57.850Z,4.40
2022-10-07T14:49:57.742Z,2.50
2022-10-07T15:00:57.602Z,3.80
2022-10-07T15:11:57.565Z,4.50
2022-10-07T15:22:57.364Z,4.00
2022-10-07T15:33:57.378Z,4.30
2022-10-07T15:44:57.102Z,4.40
2022-10-07T15:55:56.975Z,3.00
2022-10-07T16:06:56.863Z,3.30
2022-10-07T16:17:56.737Z,4.80
2022-10-07T16:28:56.601Z,3.70
2022-10-07T16:39:56.479Z,4.00
2022-10-07T16:50:56.349Z,4.70
2022-10-07T17:01:56.487Z,4.20
2022-10-07T17:12:56.109Z,4.00
2022-10-07T17:23:55.993Z,4.40
2022-10-07T17:34:55.860Z,4.90
2022-10-07T17:45:55.724Z,4.90
2022-10-07T17:56:55.617Z,5.50
2022-10-07T18:07:55.477Z,4.70
2022-10-07T18:18:55.362Z,4.70
2022-10-07T18:29:55.229Z,9.30
2022-10-07T18:40:55.106Z,9.10
2022-10-07T18:51:54.978Z,9.00
2022-10-07T19:02:54.859Z,7.50
2022-10-07T19:13:54.730Z,10.70
2022-10-07T19:24:54.609Z,11.50
2022-10-07T19:35:54.480Z,11.30
2022-10-07T19:46:54.393Z,9.70
2022-10-07T19:57:54.225Z,9.20
2022-10-07T20:08:54.099Z,9.20
2022-10-07T20:19:54.004Z,6.90
2022-10-07T20:30:53.867Z,8.00
2022-10-07T20:41:53.726Z,7.30
2022-10-07T20:52:53.609Z,7.80
